Map

Track Data

SID SEASON NUMBER BASIN SUBBASIN NAME ISO_TIME NATURE LAT LON WMO_WIND WMO_PRES WMO_AGENCY TRACK_TYPE DIST2LAND LANDFALL IFLAG USA_AGENCY USA_ATCF_ID USA_LAT USA_LON USA_RECORD USA_STATUS USA_WIND USA_PRES USA_SSHS USA_R34_NE USA_R34_SE USA_R34_SW USA_R34_NW USA_R50_NE USA_R50_SE USA_R50_SW USA_R50_NW USA_R64_NE USA_R64_SE USA_R64_SW USA_R64_NW USA_POCI USA_ROCI USA_RMW USA_EYE TOKYO_LAT TOKYO_LON TOKYO_GRADE TOKYO_WIND TOKYO_PRES TOKYO_R50_DIR TOKYO_R50_LONG TOKYO_R50_SHORT TOKYO_R30_DIR TOKYO_R30_LONG TOKYO_R30_SHORT TOKYO_LAND CMA_LAT CMA_LON CMA_CAT CMA_WIND CMA_PRES HKO_LAT HKO_LON HKO_CAT HKO_WIND HKO_PRES NEWDELHI_LAT NEWDELHI_LON NEWDELHI_GRADE NEWDELHI_WIND NEWDELHI_PRES NEWDELHI_CI NEWDELHI_DP NEWDELHI_POCI REUNION_LAT REUNION_LON REUNION_TYPE REUNION_WIND REUNION_PRES REUNION_TNUM REUNION_CI REUNION_RMW REUNION_R34_NE REUNION_R34_SE REUNION_R34_SW REUNION_R34_NW REUNION_R50_NE REUNION_R50_SE REUNION_R50_SW REUNION_R50_NW REUNION_R64_NE REUNION_R64_SE REUNION_R64_SW REUNION_R64_NW BOM_LAT BOM_LON BOM_TYPE BOM_WIND BOM_PRES BOM_TNUM BOM_CI BOM_RMW BOM_R34_NE BOM_R34_SE BOM_R34_SW BOM_R34_NW BOM_R50_NE BOM_R50_SE BOM_R50_SW BOM_R50_NW BOM_R64_NE BOM_R64_SE BOM_R64_SW BOM_R64_NW BOM_ROCI BOM_POCI BOM_EYE BOM_POS_METHOD BOM_PRES_METHOD NADI_LAT NADI_LON NADI_CAT NADI_WIND NADI_PRES WELLINGTON_LAT WELLINGTON_LON WELLINGTON_WIND WELLINGTON_PRES DS824_LAT DS824_LON DS824_STAGE DS824_WIND DS824_PRES TD9636_LAT TD9636_LON TD9636_STAGE TD9636_WIND TD9636_PRES TD9635_LAT TD9635_LON TD9635_WIND TD9635_PRES TD9635_ROCI NEUMANN_LAT NEUMANN_LON NEUMANN_CLASS NEUMANN_WIND NEUMANN_PRES MLC_LAT MLC_LON MLC_CLASS MLC_WIND MLC_PRES USA_GUST BOM_GUST BOM_GUST_PER REUNION_GUST REUNION_GUST_PER USA_SEAHGT USA_SEARAD_NE USA_SEARAD_SE USA_SEARAD_SW USA_SEARAD_NW STORM_SPEED STORM_DIR
1945345S11062 1946 86 SI MM NOT_NAMED 1945-12-11 06:00:00 NR -10.7000 61.6000 reunion main 1132 1132 _____O________ -1 -10.7000 61.6000 99 9.90000 1 236
1945345S11062 1946 86 SI MM NOT_NAMED 1945-12-11 09:00:00 NR -10.7310 61.5648 main 1132 1117 _____P________ -1 -10.7310 61.5648 99 1 233
1945345S11062 1946 86 SI MM NOT_NAMED 1945-12-11 12:00:00 NR -10.7627 61.5162 main 1117 1113 _____P________ -1 -10.7627 61.5162 99 1 242
1945345S11062 1946 86 SI MM NOT_NAMED 1945-12-11 15:00:00 NR -10.7956 61.4411 main 1113 1110 _____P________ -1 -10.7956 61.4411 99 2 250
1945345S11062 1946 86 SI MM NOT_NAMED 1945-12-11 18:00:00 NR -10.8305 61.3261 main 1110 1095 _____P________ -1 -10.8305 61.3261 99 3 255
1945345S11062 1946 86 SI MM NOT_NAMED 1945-12-11 21:00:00 NR -10.8678 61.1579 main 1095 1085 _____P________ -1 -10.8678 61.1579 99 4 259
1945345S11062 1946 86 SI MM NOT_NAMED 1945-12-12 00:00:00 NR -10.9082 60.9231 main 1085 1075 _____P________ -1 -10.9082 60.9231 99 5 261
1945345S11062 1946 86 SI MM NOT_NAMED 1945-12-12 03:00:00 NR -10.9522 60.6083 main 1064 1053 _____P________ -1 -10.9522 60.6083 99 7 263
1945345S11062 1946 86 SI MM NOT_NAMED 1945-12-12 06:00:00 NR -11.0000 60.2000 reunion main 1053 1040 _____O________ -1 -11.0000 60.2000 99 9.90000 9 264
1945345S11062 1946 86 SI MM NOT_NAMED 1945-12-12 09:00:00 NR -11.0518 59.6909 main 1029 1018 _____P________ -1 -11.0518 59.6909 99 11 264
1945345S11062 1946 86 SI MM NOT_NAMED 1945-12-12 12:00:00 NR -11.1072 59.0981 main 1018 956 _____P________ -1 -11.1072 59.0981 99 12 265
1945345S11062 1946 86 SI MM NOT_NAMED 1945-12-12 15:00:00 NR -11.1657 58.4451 main 945 882 _____P________ -1 -11.1657 58.4451 99 13 265
1945345S11062 1946 86 SI MM NOT_NAMED 1945-12-12 18:00:00 NR -11.2269 57.7553 main 882 805 _____P________ -1 -11.2269 57.7553 99 14 265
1945345S11062 1946 86 SI MM NOT_NAMED 1945-12-12 21:00:00 NR -11.2908 57.0524 main 805 729 _____P________ -1 -11.2908 57.0524 99 14 265
1945345S11062 1946 86 SI MM NOT_NAMED 1945-12-13 00:00:00 NR -11.3574 56.3598 main 729 655 _____P________ -1 -11.3574 56.3598 99 13 264
1945345S11062 1946 86 SI MM NOT_NAMED 1945-12-13 03:00:00 NR -11.4269 55.7012 main 655 589 _____P________ -1 -11.4269 55.7012 99 12 263
1945345S11062 1946 86 SI MM NOT_NAMED 1945-12-13 06:00:00 NR -11.5000 55.1000 reunion main 589 544 _____O________ -1 -11.5000 55.1000 99 9.90000 10 263
1945345S11062 1946 86 SI MM NOT_NAMED 1945-12-13 09:00:00 NR -11.5587 54.6655 main 544 503 _____P________ -1 -11.5587 54.6655 99 8 261
1945345S11062 1946 86 SI MM NOT_NAMED 1945-12-13 12:00:00 NR -11.6200 54.2822 main 503 468 _____P________ -1 -11.6200 54.2822 99 7 260
1945345S11062 1946 86 SI MM NOT_NAMED 1945-12-13 15:00:00 NR -11.6869 53.9368 main 458 423 _____P________ -1 -11.6869 53.9368 99 7 258
1945345S11062 1946 86 SI MM NOT_NAMED 1945-12-13 18:00:00 NR -11.7621 53.6155 main 423 393 _____P________ -1 -11.7621 53.6155 99 6 255
1945345S11062 1946 86 SI MM NOT_NAMED 1945-12-13 21:00:00 NR -11.8484 53.3048 main 393 358 _____P________ -1 -11.8484 53.3048 99 6 253
1945345S11062 1946 86 SI MM NOT_NAMED 1945-12-14 00:00:00 NR -11.9485 52.9911 main 358 320 _____P________ -1 -11.9485 52.9911 99 7 251
1945345S11062 1946 86 SI MM NOT_NAMED 1945-12-14 03:00:00 NR -12.0648 52.6607 main 320 275 _____P________ -1 -12.0648 52.6607 99 7 250
1945345S11062 1946 86 SI MM NOT_NAMED 1945-12-14 06:00:00 NR -12.2000 52.3000 reunion main 275 216 _____O________ -1 -12.2000 52.3000 99 9.90000 9 250
1945345S11062 1946 86 SI MM NOT_NAMED 1945-12-14 09:00:00 NR -12.3650 51.8149 main 216 161 _____P________ -1 -12.3650 51.8149 99 10 250
1945345S11062 1946 86 SI MM NOT_NAMED 1945-12-14 12:00:00 NR -12.5497 51.2991 main 161 103 _____P________ -1 -12.5497 51.2991 99 11 249
1945345S11062 1946 86 SI MM NOT_NAMED 1945-12-14 15:00:00 NR -12.7492 50.7657 main 103 44 _____P________ -1 -12.7492 50.7657 99 11 249
1945345S11062 1946 86 SI MM NOT_NAMED 1945-12-14 18:00:00 NR -12.9584 50.2279 main 32 0 _____P________ -1 -12.9584 50.2279 99 11 248
1945345S11062 1946 86 SI MM NOT_NAMED 1945-12-14 21:00:00 NR -13.1728 49.6991 main 0 0 _____P________ -1 -13.1728 49.6991 99 11 247
1945345S11062 1946 86 SI MM NOT_NAMED 1945-12-15 00:00:00 NR -13.3875 49.1925 main 0 0 _____P________ -1 -13.3875 49.1925 99 10 246
1945345S11062 1946 86 SI MM NOT_NAMED 1945-12-15 03:00:00 NR -13.5981 48.7217 main 0 0 _____P________ -1 -13.5981 48.7217 99 10 245
1945345S11062 1946 86 SI MM NOT_NAMED 1945-12-15 06:00:00 NR -13.8000 48.3000 reunion main 0 0 _____O________ -1 -13.8000 48.3000 99 9.90000 8 243
1945345S11062 1946 86 SI MM NOT_NAMED 1945-12-15 09:00:00 NR -13.9712 47.9642 main 0 0 _____P________ -1 -13.9712 47.9642 99 7 241
1945345S11062 1946 86 SI MM NOT_NAMED 1945-12-15 12:00:00 NR -14.1361 47.6742 main 24 24 _____P________ -1 -14.1361 47.6742 99 6 238
1945345S11062 1946 86 SI MM NOT_NAMED 1945-12-15 15:00:00 NR -14.2966 47.4229 main 34 34 _____P________ -1 -14.2966 47.4229 99 6 235
1945345S11062 1946 86 SI MM NOT_NAMED 1945-12-15 18:00:00 NR -14.4547 47.2033 main 39 39 _____P________ -1 -14.4547 47.2033 99 5 232
1945345S11062 1946 86 SI MM NOT_NAMED 1945-12-15 21:00:00 NR -14.6123 47.0082 main 46 39 _____P________ -1 -14.6123 47.0082 99 5 229
1945345S11062 1946 86 SI MM NOT_NAMED 1945-12-16 00:00:00 NR -14.7711 46.8307 main 49 46 _____P________ -1 -14.7711 46.8307 99 5 226
1945345S11062 1946 86 SI MM NOT_NAMED 1945-12-16 03:00:00 NR -14.9331 46.6637 main 46 35 _____P________ -1 -14.9331 46.6637 99 5 224
1945345S11062 1946 86 SI MM NOT_NAMED 1945-12-16 06:00:00 NR -15.1000 46.5000 reunion main 35 24 _____O________ -1 -15.1000 46.5000 99 9.90000 5 223
1945345S11062 1946 86 SI MM NOT_NAMED 1945-12-16 09:00:00 NR -15.2731 46.3338 main 34 24 _____P________ -1 -15.2731 46.3338 99 5 223
1945345S11062 1946 86 SI MM NOT_NAMED 1945-12-16 12:00:00 NR -15.4521 46.1642 main 24 22 _____P________ -1 -15.4521 46.1642 99 5 222
1945345S11062 1946 86 SI MM NOT_NAMED 1945-12-16 15:00:00 NR -15.6360 45.9917 main 22 10 _____P________ -1 -15.6360 45.9917 99 5 222
1945345S11062 1946 86 SI MM NOT_NAMED 1945-12-16 18:00:00 NR -15.8241 45.8167 main 11 0 _____P________ -1 -15.8241 45.8167 99 5 222
1945345S11062 1946 86 SI MM NOT_NAMED 1945-12-16 21:00:00 NR -16.0153 45.6396 main 0 0 _____P________ -1 -16.0153 45.6396 99 5 222
1945345S11062 1946 86 SI MM NOT_NAMED 1945-12-17 00:00:00 NR -16.2090 45.4608 main 0 0 _____P________ -1 -16.2090 45.4608 99 5 222
1945345S11062 1946 86 SI MM NOT_NAMED 1945-12-17 03:00:00 NR -16.4042 45.2808 main 0 0 _____P________ -1 -16.4042 45.2808 99 5 222
1945345S11062 1946 86 SI MM NOT_NAMED 1945-12-17 06:00:00 NR -16.6000 45.1000 reunion main 0 _____O________ -1 -16.6000 45.1000 99 9.90000 5 222

About IBTrACS Database

This database is a web-friendly format of International Best Track Archive for Climate Stewardship (IBTrACS), a global best track data archive curated by NOAA dating back to 1842.

Updated: 2021-10-19